sensor_id;sensor_type;location;lat;lon;timestamp;temperature;humidity
19279;DHT22;9773;47.062;15.446;2023-04-15T00:01:19;7.30;99.90
19279;DHT22;9773;47.062;15.446;2023-04-15T00:03:45;7.30;99.90
19279;DHT22;9773;47.062;15.446;2023-04-15T00:06:12;7.30;99.90
19279;DHT22;9773;47.062;15.446;2023-04-15T00:08:38;7.30;99.90
19279;DHT22;9773;47.062;15.446;2023-04-15T00:11:04;7.30;99.90
19279;DHT22;9773;47.062;15.446;2023-04-15T00:13:31;7.40;99.90
19279;DHT22;9773;47.062;15.446;2023-04-15T00:15:58;7.30;99.90
19279;DHT22;9773;47.062;15.446;2023-04-15T00:18:24;7.40;99.90
19279;DHT22;9773;47.062;15.446;2023-04-15T00:20:52;7.40;99.90
19279;DHT22;9773;47.062;15.446;2023-04-15T00:23:18;7.30;99.90
19279;DHT22;9773;47.062;15.446;2023-04-15T00:25:44;7.30;99.90
19279;DHT22;9773;47.062;15.446;2023-04-15T00:28:10;7.30;99.90
19279;DHT22;9773;47.062;15.446;2023-04-15T00:30:36;7.40;99.90
19279;DHT22;9773;47.062;15.446;2023-04-15T00:33:01;7.40;99.90
19279;DHT22;9773;47.062;15.446;2023-04-15T00:35:28;7.40;99.90
19279;DHT22;9773;47.062;15.446;2023-04-15T00:37:54;7.30;99.90
19279;DHT22;9773;47.062;15.446;2023-04-15T00:40:20;7.40;99.90
19279;DHT22;9773;47.062;15.446;2023-04-15T00:42:46;7.40;99.90
19279;DHT22;9773;47.062;15.446;2023-04-15T00:45:12;7.30;99.90
19279;DHT22;9773;47.062;15.446;2023-04-15T00:47:40;7.30;99.90
19279;DHT22;9773;47.062;15.446;2023-04-15T00:50:08;7.40;99.90
19279;DHT22;9773;47.062;15.446;2023-04-15T00:52:34;7.40;99.90
19279;DHT22;9773;47.062;15.446;2023-04-15T00:55:00;7.40;99.90
19279;DHT22;9773;47.062;15.446;2023-04-15T00:57:30;7.40;99.90
19279;DHT22;9773;47.062;15.446;2023-04-15T00:59:56;7.30;99.90
19279;DHT22;9773;47.062;15.446;2023-04-15T01:02:23;7.30;99.90
19279;DHT22;9773;47.062;15.446;2023-04-15T01:04:49;7.40;99.90
19279;DHT22;9773;47.062;15.446;2023-04-15T01:07:15;7.40;99.90
19279;DHT22;9773;47.062;15.446;2023-04-15T01:09:41;7.40;99.90
19279;DHT22;9773;47.062;15.446;2023-04-15T01:12:09;7.40;99.90
19279;DHT22;9773;47.062;15.446;2023-04-15T01:14:36;7.40;99.90
19279;DHT22;9773;47.062;15.446;2023-04-15T01:17:02;7.30;99.90
19279;DHT22;9773;47.062;15.446;2023-04-15T01:19:28;7.30;99.90
19279;DHT22;9773;47.062;15.446;2023-04-15T01:21:54;7.30;99.90
19279;DHT22;9773;47.062;15.446;2023-04-15T01:24:19;7.30;99.90
19279;DHT22;9773;47.062;15.446;2023-04-15T01:26:45;7.30;99.90
19279;DHT22;9773;47.062;15.446;2023-04-15T01:29:13;7.30;99.90
19279;DHT22;9773;47.062;15.446;2023-04-15T01:31:40;7.30;99.90
19279;DHT22;9773;47.062;15.446;2023-04-15T01:34:05;7.30;99.90
19279;DHT22;9773;47.062;15.446;2023-04-15T01:36:31;7.30;99.90
19279;DHT22;9773;47.062;15.446;2023-04-15T01:39:00;7.30;99.90
19279;DHT22;9773;47.062;15.446;2023-04-15T01:41:26;7.30;99.90
19279;DHT22;9773;47.062;15.446;2023-04-15T01:43:53;7.20;99.90
19279;DHT22;9773;47.062;15.446;2023-04-15T01:46:18;7.20;99.90
19279;DHT22;9773;47.062;15.446;2023-04-15T01:48:44;7.30;99.90
19279;DHT22;9773;47.062;15.446;2023-04-15T01:51:10;7.30;99.90
19279;DHT22;9773;47.062;15.446;2023-04-15T01:53:36;7.30;99.90
19279;DHT22;9773;47.062;15.446;2023-04-15T01:56:02;7.30;99.90
19279;DHT22;9773;47.062;15.446;2023-04-15T01:58:28;7.20;99.90
19279;DHT22;9773;47.062;15.446;2023-04-15T02:00:54;7.20;99.90
19279;DHT22;9773;47.062;15.446;2023-04-15T02:03:21;7.20;99.90
19279;DHT22;9773;47.062;15.446;2023-04-15T02:05:46;7.20;99.90
19279;DHT22;9773;47.062;15.446;2023-04-15T02:08:12;7.20;99.90
19279;DHT22;9773;47.062;15.446;2023-04-15T02:10:38;7.10;99.90
19279;DHT22;9773;47.062;15.446;2023-04-15T02:13:04;7.10;99.90
19279;DHT22;9773;47.062;15.446;2023-04-15T02:15:30;7.10;99.90
19279;DHT22;9773;47.062;15.446;2023-04-15T02:17:56;7.10;99.90
19279;DHT22;9773;47.062;15.446;2023-04-15T02:20:23;7.00;99.90
19279;DHT22;9773;47.062;15.446;2023-04-15T02:22:49;7.10;99.90
19279;DHT22;9773;47.062;15.446;2023-04-15T02:25:15;7.10;99.90
19279;DHT22;9773;47.062;15.446;2023-04-15T02:27:44;7.10;99.90
19279;DHT22;9773;47.062;15.446;2023-04-15T02:30:10;7.10;99.90
19279;DHT22;9773;47.062;15.446;2023-04-15T02:32:36;7.10;99.90
19279;DHT22;9773;47.062;15.446;2023-04-15T02:35:07;7.00;99.90
19279;DHT22;9773;47.062;15.446;2023-04-15T02:37:35;7.00;99.90
19279;DHT22;9773;47.062;15.446;2023-04-15T02:40:07;7.00;99.90
19279;DHT22;9773;47.062;15.446;2023-04-15T02:42:33;7.00;99.90
19279;DHT22;9773;47.062;15.446;2023-04-15T02:44:59;7.00;99.90
19279;DHT22;9773;47.062;15.446;2023-04-15T02:47:25;7.10;99.90
19279;DHT22;9773;47.062;15.446;2023-04-15T02:49:51;7.10;99.90
19279;DHT22;9773;47.062;15.446;2023-04-15T02:52:17;7.10;99.90
19279;DHT22;9773;47.062;15.446;2023-04-15T02:54:43;7.10;99.90
19279;DHT22;9773;47.062;15.446;2023-04-15T02:57:08;7.10;99.90
19279;DHT22;9773;47.062;15.446;2023-04-15T02:59:36;7.00;99.90
19279;DHT22;9773;47.062;15.446;2023-04-15T03:02:01;7.10;99.90
19279;DHT22;9773;47.062;15.446;2023-04-15T03:04:27;7.10;99.90
19279;DHT22;9773;47.062;15.446;2023-04-15T03:06:54;7.10;99.90
19279;DHT22;9773;47.062;15.446;2023-04-15T03:09:23;7.00;99.90
19279;DHT22;9773;47.062;15.446;2023-04-15T03:11:49;7.10;99.90
19279;DHT22;9773;47.062;15.446;2023-04-15T03:14:17;7.10;99.90
19279;DHT22;9773;47.062;15.446;2023-04-15T03:16:43;7.10;99.90
19279;DHT22;9773;47.062;15.446;2023-04-15T03:19:09;7.10;99.90
19279;DHT22;9773;47.062;15.446;2023-04-15T03:21:35;7.10;99.90
19279;DHT22;9773;47.062;15.446;2023-04-15T03:24:00;7.10;99.90
19279;DHT22;9773;47.062;15.446;2023-04-15T03:26:30;7.10;99.90
19279;DHT22;9773;47.062;15.446;2023-04-15T03:28:56;7.00;99.90
19279;DHT22;9773;47.062;15.446;2023-04-15T03:31:22;7.10;99.90
19279;DHT22;9773;47.062;15.446;2023-04-15T03:33:48;7.10;99.90
19279;DHT22;9773;47.062;15.446;2023-04-15T03:36:14;7.10;99.90
19279;DHT22;9773;47.062;15.446;2023-04-15T03:38:41;7.10;99.90
19279;DHT22;9773;47.062;15.446;2023-04-15T03:41:07;7.10;99.90
19279;DHT22;9773;47.062;15.446;2023-04-15T03:43:33;7.10;99.90
19279;DHT22;9773;47.062;15.446;2023-04-15T03:46:00;7.10;99.90
19279;DHT22;9773;47.062;15.446;2023-04-15T03:48:26;7.00;99.90
19279;DHT22;9773;47.062;15.446;2023-04-15T03:50:51;7.10;99.90
19279;DHT22;9773;47.062;15.446;2023-04-15T03:53:17;7.10;99.90
19279;DHT22;9773;47.062;15.446;2023-04-15T03:55:43;7.10;99.90
19279;DHT22;9773;47.062;15.446;2023-04-15T03:58:09;7.10;99.90
19279;DHT22;9773;47.062;15.446;2023-04-15T04:00:37;7.00;99.90
19279;DHT22;9773;47.062;15.446;2023-04-15T04:03:06;7.00;99.90
19279;DHT22;9773;47.062;15.446;2023-04-15T04:05:32;7.00;99.90
19279;DHT22;9773;47.062;15.446;2023-04-15T04:08:01;7.10;99.90
19279;DHT22;9773;47.062;15.446;2023-04-15T04:10:27;7.10;99.90
19279;DHT22;9773;47.062;15.446;2023-04-15T04:12:52;7.00;99.90
19279;DHT22;9773;47.062;15.446;2023-04-15T04:15:18;7.00;99.90
19279;DHT22;9773;47.062;15.446;2023-04-15T04:17:44;7.00;99.90
19279;DHT22;9773;47.062;15.446;2023-04-15T04:20:10;7.20;99.90
19279;DHT22;9773;47.062;15.446;2023-04-15T04:22:41;7.00;99.90
19279;DHT22;9773;47.062;15.446;2023-04-15T04:25:08;6.90;99.90
19279;DHT22;9773;47.062;15.446;2023-04-15T04:27:37;6.90;99.90
19279;DHT22;9773;47.062;15.446;2023-04-15T04:30:04;6.90;99.90
19279;DHT22;9773;47.062;15.446;2023-04-15T04:32:30;7.00;99.90
19279;DHT22;9773;47.062;15.446;2023-04-15T04:34:56;7.00;99.90
19279;DHT22;9773;47.062;15.446;2023-04-15T04:37:22;7.00;99.90
19279;DHT22;9773;47.062;15.446;2023-04-15T04:39:49;7.00;99.90
19279;DHT22;9773;47.062;15.446;2023-04-15T04:42:14;7.00;99.90
19279;DHT22;9773;47.062;15.446;2023-04-15T04:44:40;7.10;99.90
19279;DHT22;9773;47.062;15.446;2023-04-15T04:47:06;7.00;99.90
19279;DHT22;9773;47.062;15.446;2023-04-15T04:49:32;7.10;99.90
19279;DHT22;9773;47.062;15.446;2023-04-15T04:51:58;7.10;99.90
19279;DHT22;9773;47.062;15.446;2023-04-15T04:54:24;7.10;99.90
19279;DHT22;9773;47.062;15.446;2023-04-15T04:56:50;7.10;99.90
19279;DHT22;9773;47.062;15.446;2023-04-15T04:59:16;7.20;99.90
19279;DHT22;9773;47.062;15.446;2023-04-15T05:01:45;7.10;99.90
19279;DHT22;9773;47.062;15.446;2023-04-15T05:04:11;7.20;99.90
19279;DHT22;9773;47.062;15.446;2023-04-15T05:06:37;7.20;99.90
19279;DHT22;9773;47.062;15.446;2023-04-15T05:09:02;7.20;99.90
19279;DHT22;9773;47.062;15.446;2023-04-15T05:11:28;7.10;99.90
19279;DHT22;9773;47.062;15.446;2023-04-15T05:13:54;7.10;99.90
19279;DHT22;9773;47.062;15.446;2023-04-15T05:16:20;7.00;99.90
19279;DHT22;9773;47.062;15.446;2023-04-15T05:18:46;7.00;99.90
19279;DHT22;9773;47.062;15.446;2023-04-15T05:21:12;7.10;99.90
19279;DHT22;9773;47.062;15.446;2023-04-15T05:23:38;7.00;99.90
19279;DHT22;9773;47.062;15.446;2023-04-15T05:26:04;7.00;99.90
19279;DHT22;9773;47.062;15.446;2023-04-15T05:28:30;7.10;99.90
19279;DHT22;9773;47.062;15.446;2023-04-15T05:30:55;7.10;99.90
19279;DHT22;9773;47.062;15.446;2023-04-15T05:33:22;7.10;99.90
19279;DHT22;9773;47.062;15.446;2023-04-15T05:35:47;7.10;99.90
19279;DHT22;9773;47.062;15.446;2023-04-15T05:38:13;7.10;99.90
19279;DHT22;9773;47.062;15.446;2023-04-15T05:40:39;7.20;99.90
19279;DHT22;9773;47.062;15.446;2023-04-15T05:43:05;7.10;99.90
19279;DHT22;9773;47.062;15.446;2023-04-15T05:45:30;7.10;99.90
19279;DHT22;9773;47.062;15.446;2023-04-15T05:47:56;7.10;99.90
19279;DHT22;9773;47.062;15.446;2023-04-15T05:50:22;7.10;99.90
19279;DHT22;9773;47.062;15.446;2023-04-15T05:52:47;7.20;99.90
19279;DHT22;9773;47.062;15.446;2023-04-15T05:55:13;7.20;99.90
19279;DHT22;9773;47.062;15.446;2023-04-15T05:57:39;7.30;99.90
19279;DHT22;9773;47.062;15.446;2023-04-15T06:00:05;7.40;99.90
19279;DHT22;9773;47.062;15.446;2023-04-15T06:02:31;7.40;99.90
19279;DHT22;9773;47.062;15.446;2023-04-15T06:04:57;7.40;99.90
19279;DHT22;9773;47.062;15.446;2023-04-15T06:07:23;7.50;99.90
19279;DHT22;9773;47.062;15.446;2023-04-15T06:09:49;7.40;99.90
19279;DHT22;9773;47.062;15.446;2023-04-15T06:12:15;7.50;99.90
19279;DHT22;9773;47.062;15.446;2023-04-15T06:14:41;7.50;99.90
19279;DHT22;9773;47.062;15.446;2023-04-15T06:17:07;7.70;99.90
19279;DHT22;9773;47.062;15.446;2023-04-15T06:19:34;7.60;99.90
19279;DHT22;9773;47.062;15.446;2023-04-15T06:22:01;7.70;99.90
19279;DHT22;9773;47.062;15.446;2023-04-15T06:24:27;7.70;99.90
19279;DHT22;9773;47.062;15.446;2023-04-15T06:26:53;7.70;99.90
19279;DHT22;9773;47.062;15.446;2023-04-15T06:29:19;7.70;99.90
19279;DHT22;9773;47.062;15.446;2023-04-15T06:31:48;7.80;99.90
19279;DHT22;9773;47.062;15.446;2023-04-15T06:34:14;7.80;99.90
19279;DHT22;9773;47.062;15.446;2023-04-15T06:36:40;7.90;99.90
19279;DHT22;9773;47.062;15.446;2023-04-15T06:39:05;7.90;99.90
19279;DHT22;9773;47.062;15.446;2023-04-15T06:41:31;8.00;99.90
19279;DHT22;9773;47.062;15.446;2023-04-15T06:43:57;8.00;99.90
19279;DHT22;9773;47.062;15.446;2023-04-15T06:46:23;8.00;99.90
19279;DHT22;9773;47.062;15.446;2023-04-15T06:48:48;8.00;99.90
19279;DHT22;9773;47.062;15.446;2023-04-15T06:51:14;8.10;99.90
19279;DHT22;9773;47.062;15.446;2023-04-15T06:53:40;8.10;99.90
19279;DHT22;9773;47.062;15.446;2023-04-15T06:56:08;8.10;99.90
19279;DHT22;9773;47.062;15.446;2023-04-15T06:58:34;8.10;99.90
19279;DHT22;9773;47.062;15.446;2023-04-15T07:01:00;8.10;99.90
19279;DHT22;9773;47.062;15.446;2023-04-15T07:03:26;8.10;99.90
19279;DHT22;9773;47.062;15.446;2023-04-15T07:05:52;8.20;99.90
19279;DHT22;9773;47.062;15.446;2023-04-15T07:08:18;8.20;99.90
19279;DHT22;9773;47.062;15.446;2023-04-15T07:10:45;8.30;99.90
19279;DHT22;9773;47.062;15.446;2023-04-15T07:13:12;8.30;99.90
19279;DHT22;9773;47.062;15.446;2023-04-15T07:15:37;8.40;99.90
19279;DHT22;9773;47.062;15.446;2023-04-15T07:18:03;8.30;99.90
19279;DHT22;9773;47.062;15.446;2023-04-15T07:20:29;8.20;99.90
19279;DHT22;9773;47.062;15.446;2023-04-15T07:22:55;8.20;99.90
19279;DHT22;9773;47.062;15.446;2023-04-15T07:25:22;8.20;99.90
19279;DHT22;9773;47.062;15.446;2023-04-15T07:27:48;8.10;99.90
19279;DHT22;9773;47.062;15.446;2023-04-15T07:30:13;8.00;99.90
19279;DHT22;9773;47.062;15.446;2023-04-15T07:32:41;8.10;99.90
19279;DHT22;9773;47.062;15.446;2023-04-15T07:35:07;8.00;99.90
19279;DHT22;9773;47.062;15.446;2023-04-15T07:37:34;8.00;99.90
19279;DHT22;9773;47.062;15.446;2023-04-15T07:40:01;8.20;99.90
19279;DHT22;9773;47.062;15.446;2023-04-15T07:42:26;8.20;99.90
19279;DHT22;9773;47.062;15.446;2023-04-15T07:44:53;8.30;99.90
19279;DHT22;9773;47.062;15.446;2023-04-15T07:47:19;8.40;99.90
19279;DHT22;9773;47.062;15.446;2023-04-15T07:49:45;8.40;99.90
19279;DHT22;9773;47.062;15.446;2023-04-15T07:52:11;8.30;99.90
19279;DHT22;9773;47.062;15.446;2023-04-15T07:54:37;8.40;99.90
19279;DHT22;9773;47.062;15.446;2023-04-15T07:57:03;8.40;99.90
19279;DHT22;9773;47.062;15.446;2023-04-15T07:59:29;8.60;99.90
19279;DHT22;9773;47.062;15.446;2023-04-15T08:01:55;8.80;99.90
19279;DHT22;9773;47.062;15.446;2023-04-15T08:04:21;8.90;99.90
19279;DHT22;9773;47.062;15.446;2023-04-15T08:06:47;9.30;99.90
19279;DHT22;9773;47.062;15.446;2023-04-15T08:09:15;9.60;99.90
19279;DHT22;9773;47.062;15.446;2023-04-15T08:11:41;9.70;99.90
19279;DHT22;9773;47.062;15.446;2023-04-15T08:14:06;9.80;99.90
19279;DHT22;9773;47.062;15.446;2023-04-15T08:16:33;9.80;99.90
19279;DHT22;9773;47.062;15.446;2023-04-15T08:18:59;9.90;99.90
19279;DHT22;9773;47.062;15.446;2023-04-15T08:21:25;10.00;99.90
19279;DHT22;9773;47.062;15.446;2023-04-15T08:23:52;10.10;99.90
19279;DHT22;9773;47.062;15.446;2023-04-15T08:26:20;10.10;99.90
19279;DHT22;9773;47.062;15.446;2023-04-15T08:28:46;10.10;99.90
19279;DHT22;9773;47.062;15.446;2023-04-15T08:31:13;10.10;99.90
19279;DHT22;9773;47.062;15.446;2023-04-15T08:33:39;10.00;99.90
19279;DHT22;9773;47.062;15.446;2023-04-15T08:36:05;10.10;99.90
19279;DHT22;9773;47.062;15.446;2023-04-15T08:38:33;10.10;99.90
19279;DHT22;9773;47.062;15.446;2023-04-15T08:41:01;10.20;99.90
19279;DHT22;9773;47.062;15.446;2023-04-15T08:43:33;10.20;99.90
19279;DHT22;9773;47.062;15.446;2023-04-15T08:46:00;10.30;99.90
19279;DHT22;9773;47.062;15.446;2023-04-15T08:48:28;10.40;99.90
19279;DHT22;9773;47.062;15.446;2023-04-15T08:50:54;10.50;99.90
19279;DHT22;9773;47.062;15.446;2023-04-15T08:53:20;10.50;99.90
19279;DHT22;9773;47.062;15.446;2023-04-15T08:55:51;10.50;99.90
19279;DHT22;9773;47.062;15.446;2023-04-15T08:58:18;10.50;99.90
19279;DHT22;9773;47.062;15.446;2023-04-15T09:00:44;10.50;99.90
19279;DHT22;9773;47.062;15.446;2023-04-15T09:03:10;10.60;99.90
19279;DHT22;9773;47.062;15.446;2023-04-15T09:05:36;10.70;99.90
19279;DHT22;9773;47.062;15.446;2023-04-15T09:08:03;10.90;99.90
19279;DHT22;9773;47.062;15.446;2023-04-15T09:10:30;11.00;99.90
19279;DHT22;9773;47.062;15.446;2023-04-15T09:12:57;11.00;99.90
19279;DHT22;9773;47.062;15.446;2023-04-15T09:15:27;11.00;99.90
19279;DHT22;9773;47.062;15.446;2023-04-15T09:17:55;11.00;99.90
19279;DHT22;9773;47.062;15.446;2023-04-15T09:20:22;11.20;99.90
19279;DHT22;9773;47.062;15.446;2023-04-15T09:22:49;11.30;99.90
19279;DHT22;9773;47.062;15.446;2023-04-15T09:27:58;11.50;99.90
19279;DHT22;9773;47.062;15.446;2023-04-15T09:30:26;11.60;99.90
19279;DHT22;9773;47.062;15.446;2023-04-15T09:32:53;11.70;99.90
19279;DHT22;9773;47.062;15.446;2023-04-15T09:35:20;11.80;99.90
19279;DHT22;9773;47.062;15.446;2023-04-15T09:37:47;11.90;99.90
19279;DHT22;9773;47.062;15.446;2023-04-15T09:40:13;11.90;99.90
19279;DHT22;9773;47.062;15.446;2023-04-15T09:42:55;11.80;99.90
19279;DHT22;9773;47.062;15.446;2023-04-15T09:45:22;11.90;99.90
19279;DHT22;9773;47.062;15.446;2023-04-15T09:47:47;12.00;99.90
19279;DHT22;9773;47.062;15.446;2023-04-15T09:50:15;12.20;99.90
19279;DHT22;9773;47.062;15.446;2023-04-15T09:52:42;12.30;99.90
19279;DHT22;9773;47.062;15.446;2023-04-15T09:55:09;12.30;99.90
19279;DHT22;9773;47.062;15.446;2023-04-15T09:58:58;12.30;99.90
19279;DHT22;9773;47.062;15.446;2023-04-15T10:01:24;12.30;99.90
19279;DHT22;9773;47.062;15.446;2023-04-15T10:03:50;12.30;99.90
19279;DHT22;9773;47.062;15.446;2023-04-15T10:06:17;12.30;99.90
19279;DHT22;9773;47.062;15.446;2023-04-15T10:08:43;12.40;99.90
19279;DHT22;9773;47.062;15.446;2023-04-15T10:11:09;12.50;99.90
19279;DHT22;9773;47.062;15.446;2023-04-15T10:13:35;12.60;99.90
19279;DHT22;9773;47.062;15.446;2023-04-15T10:16:07;12.60;99.90
19279;DHT22;9773;47.062;15.446;2023-04-15T10:18:37;12.80;99.90
19279;DHT22;9773;47.062;15.446;2023-04-15T10:21:06;12.80;99.90
19279;DHT22;9773;47.062;15.446;2023-04-15T10:23:33;12.70;99.90
19279;DHT22;9773;47.062;15.446;2023-04-15T10:25:59;12.70;99.90
19279;DHT22;9773;47.062;15.446;2023-04-15T10:28:25;12.80;99.90
19279;DHT22;9773;47.062;15.446;2023-04-15T10:30:52;12.70;99.90
19279;DHT22;9773;47.062;15.446;2023-04-15T10:33:20;12.70;99.90
19279;DHT22;9773;47.062;15.446;2023-04-15T10:35:48;12.60;99.90
19279;DHT22;9773;47.062;15.446;2023-04-15T10:38:39;12.60;99.90
19279;DHT22;9773;47.062;15.446;2023-04-15T10:41:23;12.70;99.90
19279;DHT22;9773;47.062;15.446;2023-04-15T10:43:51;12.70;99.90
19279;DHT22;9773;47.062;15.446;2023-04-15T10:46:22;12.70;99.90
19279;DHT22;9773;47.062;15.446;2023-04-15T10:48:50;12.60;99.90
19279;DHT22;9773;47.062;15.446;2023-04-15T10:51:27;12.50;99.90
19279;DHT22;9773;47.062;15.446;2023-04-15T10:53:56;12.40;99.90
19279;DHT22;9773;47.062;15.446;2023-04-15T10:56:23;12.40;99.90
19279;DHT22;9773;47.062;15.446;2023-04-15T10:58:48;12.40;99.90
19279;DHT22;9773;47.062;15.446;2023-04-15T11:01:14;12.40;99.90
19279;DHT22;9773;47.062;15.446;2023-04-15T11:03:42;12.50;99.90
19279;DHT22;9773;47.062;15.446;2023-04-15T11:06:08;12.40;99.90
19279;DHT22;9773;47.062;15.446;2023-04-15T11:11:20;12.30;99.90
19279;DHT22;9773;47.062;15.446;2023-04-15T11:13:50;12.30;99.90
19279;DHT22;9773;47.062;15.446;2023-04-15T11:16:17;12.40;99.90
19279;DHT22;9773;47.062;15.446;2023-04-15T11:18:53;12.50;99.90
19279;DHT22;9773;47.062;15.446;2023-04-15T11:21:24;12.60;99.90
19279;DHT22;9773;47.062;15.446;2023-04-15T11:23:50;12.80;99.90
19279;DHT22;9773;47.062;15.446;2023-04-15T11:26:16;12.90;99.90
19279;DHT22;9773;47.062;15.446;2023-04-15T11:28:43;13.00;99.90
19279;DHT22;9773;47.062;15.446;2023-04-15T11:31:11;13.10;99.90
19279;DHT22;9773;47.062;15.446;2023-04-15T11:33:56;13.20;99.90
19279;DHT22;9773;47.062;15.446;2023-04-15T11:36:26;13.10;99.90
19279;DHT22;9773;47.062;15.446;2023-04-15T11:38:56;13.00;99.90
19279;DHT22;9773;47.062;15.446;2023-04-15T11:41:22;13.10;99.90
19279;DHT22;9773;47.062;15.446;2023-04-15T11:43:49;13.20;99.90
19279;DHT22;9773;47.062;15.446;2023-04-15T11:46:15;13.30;99.90
19279;DHT22;9773;47.062;15.446;2023-04-15T11:48:45;13.40;99.90
19279;DHT22;9773;47.062;15.446;2023-04-15T11:51:12;13.40;99.90
19279;DHT22;9773;47.062;15.446;2023-04-15T11:56:22;13.50;99.90
19279;DHT22;9773;47.062;15.446;2023-04-15T11:58:54;13.50;99.90
19279;DHT22;9773;47.062;15.446;2023-04-15T12:01:47;13.40;99.90
19279;DHT22;9773;47.062;15.446;2023-04-15T12:04:16;13.30;99.90
19279;DHT22;9773;47.062;15.446;2023-04-15T12:06:46;13.10;99.90
19279;DHT22;9773;47.062;15.446;2023-04-15T12:09:13;13.10;99.90
19279;DHT22;9773;47.062;15.446;2023-04-15T12:11:55;13.00;99.90
19279;DHT22;9773;47.062;15.446;2023-04-15T12:14:26;13.10;99.90
19279;DHT22;9773;47.062;15.446;2023-04-15T12:17:03;13.10;99.90
19279;DHT22;9773;47.062;15.446;2023-04-15T12:19:30;13.20;99.90
19279;DHT22;9773;47.062;15.446;2023-04-15T12:22:02;13.30;99.90
19279;DHT22;9773;47.062;15.446;2023-04-15T12:24:33;13.50;99.90
19279;DHT22;9773;47.062;15.446;2023-04-15T12:27:06;13.50;99.90
19279;DHT22;9773;47.062;15.446;2023-04-15T12:29:34;13.60;99.90
19279;DHT22;9773;47.062;15.446;2023-04-15T12:32:10;13.70;99.90
19279;DHT22;9773;47.062;15.446;2023-04-15T12:37:04;14.00;99.90
19279;DHT22;9773;47.062;15.446;2023-04-15T12:39:34;14.00;99.90
19279;DHT22;9773;47.062;15.446;2023-04-15T12:42:00;13.90;99.90
19279;DHT22;9773;47.062;15.446;2023-04-15T12:44:26;13.90;99.90
19279;DHT22;9773;47.062;15.446;2023-04-15T12:46:53;13.80;99.90
19279;DHT22;9773;47.062;15.446;2023-04-15T12:49:23;13.70;99.90
19279;DHT22;9773;47.062;15.446;2023-04-15T12:51:52;13.60;99.90
19279;DHT22;9773;47.062;15.446;2023-04-15T12:54:19;13.50;99.90
19279;DHT22;9773;47.062;15.446;2023-04-15T12:56:46;13.60;99.90
19279;DHT22;9773;47.062;15.446;2023-04-15T12:59:13;13.60;99.90
19279;DHT22;9773;47.062;15.446;2023-04-15T13:01:39;13.70;99.90
19279;DHT22;9773;47.062;15.446;2023-04-15T13:04:06;13.60;99.90
19279;DHT22;9773;47.062;15.446;2023-04-15T13:06:31;13.60;99.90
19279;DHT22;9773;47.062;15.446;2023-04-15T13:09:01;13.40;99.90
19279;DHT22;9773;47.062;15.446;2023-04-15T13:11:27;13.40;99.90
19279;DHT22;9773;47.062;15.446;2023-04-15T13:13:56;13.40;99.90
19279;DHT22;9773;47.062;15.446;2023-04-15T13:16:22;13.30;99.90
19279;DHT22;9773;47.062;15.446;2023-04-15T13:18:49;13.30;99.90
19279;DHT22;9773;47.062;15.446;2023-04-15T13:21:15;13.20;99.90
19279;DHT22;9773;47.062;15.446;2023-04-15T13:23:41;13.10;99.90
19279;DHT22;9773;47.062;15.446;2023-04-15T13:26:07;12.80;99.90
19279;DHT22;9773;47.062;15.446;2023-04-15T13:28:33;12.60;99.90
19279;DHT22;9773;47.062;15.446;2023-04-15T13:30:59;12.60;99.90
19279;DHT22;9773;47.062;15.446;2023-04-15T13:33:25;12.40;99.90
19279;DHT22;9773;47.062;15.446;2023-04-15T13:35:51;12.30;99.90
19279;DHT22;9773;47.062;15.446;2023-04-15T13:38:17;12.10;99.90
19279;DHT22;9773;47.062;15.446;2023-04-15T13:40:42;12.00;99.90
19279;DHT22;9773;47.062;15.446;2023-04-15T13:43:08;11.80;99.90
19279;DHT22;9773;47.062;15.446;2023-04-15T13:45:34;11.60;99.90
19279;DHT22;9773;47.062;15.446;2023-04-15T13:48:00;11.30;99.90
19279;DHT22;9773;47.062;15.446;2023-04-15T13:50:27;11.20;99.90
19279;DHT22;9773;47.062;15.446;2023-04-15T13:52:52;10.90;99.90
19279;DHT22;9773;47.062;15.446;2023-04-15T13:55:18;10.60;99.90
19279;DHT22;9773;47.062;15.446;2023-04-15T13:57:47;10.30;99.90
19279;DHT22;9773;47.062;15.446;2023-04-15T14:00:13;10.20;99.90
19279;DHT22;9773;47.062;15.446;2023-04-15T14:02:39;10.30;99.90
19279;DHT22;9773;47.062;15.446;2023-04-15T14:05:07;10.40;99.90
19279;DHT22;9773;47.062;15.446;2023-04-15T14:07:33;10.50;99.90
19279;DHT22;9773;47.062;15.446;2023-04-15T14:09:59;10.50;99.90
19279;DHT22;9773;47.062;15.446;2023-04-15T14:12:25;10.70;99.90
19279;DHT22;9773;47.062;15.446;2023-04-15T14:14:51;10.80;99.90
19279;DHT22;9773;47.062;15.446;2023-04-15T14:17:17;11.00;99.90
19279;DHT22;9773;47.062;15.446;2023-04-15T14:19:43;11.00;99.90
19279;DHT22;9773;47.062;15.446;2023-04-15T14:22:08;10.90;99.90
19279;DHT22;9773;47.062;15.446;2023-04-15T14:24:34;10.90;99.90
19279;DHT22;9773;47.062;15.446;2023-04-15T14:27:00;10.90;99.90
19279;DHT22;9773;47.062;15.446;2023-04-15T14:29:26;10.90;99.90
19279;DHT22;9773;47.062;15.446;2023-04-15T14:31:52;11.10;99.90
19279;DHT22;9773;47.062;15.446;2023-04-15T14:34:18;11.00;99.90
19279;DHT22;9773;47.062;15.446;2023-04-15T14:36:46;11.00;99.90
19279;DHT22;9773;47.062;15.446;2023-04-15T14:39:13;11.00;99.90
19279;DHT22;9773;47.062;15.446;2023-04-15T14:41:38;11.00;99.90
19279;DHT22;9773;47.062;15.446;2023-04-15T14:44:04;11.10;99.90
19279;DHT22;9773;47.062;15.446;2023-04-15T14:46:30;11.00;99.90
19279;DHT22;9773;47.062;15.446;2023-04-15T14:48:56;11.00;99.90
19279;DHT22;9773;47.062;15.446;2023-04-15T14:51:22;11.10;99.90
19279;DHT22;9773;47.062;15.446;2023-04-15T14:53:48;11.20;99.90
19279;DHT22;9773;47.062;15.446;2023-04-15T14:56:14;11.30;99.90
19279;DHT22;9773;47.062;15.446;2023-04-15T14:58:39;11.20;99.90
19279;DHT22;9773;47.062;15.446;2023-04-15T15:01:05;11.30;99.90
19279;DHT22;9773;47.062;15.446;2023-04-15T15:03:31;11.30;99.90
19279;DHT22;9773;47.062;15.446;2023-04-15T15:05:57;11.30;99.90
19279;DHT22;9773;47.062;15.446;2023-04-15T15:08:24;11.30;99.90
19279;DHT22;9773;47.062;15.446;2023-04-15T15:10:50;11.30;99.90
19279;DHT22;9773;47.062;15.446;2023-04-15T15:13:17;11.20;99.90
19279;DHT22;9773;47.062;15.446;2023-04-15T15:15:43;11.10;99.90
19279;DHT22;9773;47.062;15.446;2023-04-15T15:18:09;11.10;99.90
19279;DHT22;9773;47.062;15.446;2023-04-15T15:20:35;11.20;99.90
19279;DHT22;9773;47.062;15.446;2023-04-15T15:23:01;11.20;99.90
19279;DHT22;9773;47.062;15.446;2023-04-15T15:25:27;11.20;99.90
19279;DHT22;9773;47.062;15.446;2023-04-15T15:27:53;11.20;99.90
19279;DHT22;9773;47.062;15.446;2023-04-15T15:30:19;11.20;99.90
19279;DHT22;9773;47.062;15.446;2023-04-15T15:32:44;11.30;99.90
19279;DHT22;9773;47.062;15.446;2023-04-15T15:35:10;11.40;99.90
19279;DHT22;9773;47.062;15.446;2023-04-15T15:37:36;11.40;99.90
19279;DHT22;9773;47.062;15.446;2023-04-15T15:40:04;11.30;99.90
19279;DHT22;9773;47.062;15.446;2023-04-15T15:42:30;11.20;99.90
19279;DHT22;9773;47.062;15.446;2023-04-15T15:44:57;11.30;99.90
19279;DHT22;9773;47.062;15.446;2023-04-15T15:47:22;11.20;99.90
19279;DHT22;9773;47.062;15.446;2023-04-15T15:49:48;11.20;99.90